createdAt,value
2019-01-19T00:01:30.795Z,-1.70
2019-01-19T00:06:39.140Z,-1.80
2019-01-19T00:12:00.612Z,-1.80
2019-01-19T00:16:57.967Z,-1.90
2019-01-19T00:22:17.883Z,-1.80
2019-01-19T00:27:26.127Z,-1.80
2019-01-19T00:32:34.872Z,-1.90
2019-01-19T00:37:31.541Z,-1.80
2019-01-19T00:42:33.041Z,-2.00
2019-01-19T00:47:46.173Z,-1.90
2019-01-19T00:52:48.446Z,-1.90
2019-01-19T00:57:55.883Z,-1.80
2019-01-19T01:03:14.323Z,-1.50
2019-01-19T01:08:26.096Z,-1.50
2019-01-19T01:13:26.161Z,-1.60
2019-01-19T01:18:46.546Z,-1.50
2019-01-19T01:24:08.324Z,-1.60
2019-01-19T01:29:23.856Z,-1.70
2019-01-19T01:34:37.433Z,-1.70
2019-01-19T01:39:34.439Z,-1.70
2019-01-19T01:44:48.556Z,-1.60
2019-01-19T01:50:01.224Z,-1.60
2019-01-19T01:55:10.882Z,-1.60
2019-01-19T02:00:22.532Z,-1.60
2019-01-19T02:05:40.329Z,-1.50
2019-01-19T02:10:57.893Z,-1.40
2019-01-19T02:16:12.165Z,-1.30
2019-01-19T02:21:29.595Z,-1.30
2019-01-19T02:26:36.681Z,-1.20
2019-01-19T02:31:48.812Z,-1.20
2019-01-19T02:37:08.678Z,-1.20
2019-01-19T02:42:20.860Z,-1.20
2019-01-19T02:47:27.529Z,-1.30
2019-01-19T02:52:52.907Z,-1.40
2019-01-19T02:58:00.074Z,-1.50
2019-01-19T03:03:02.436Z,-1.60
2019-01-19T03:08:08.411Z,-1.60
2019-01-19T03:13:23.271Z,-1.70
2019-01-19T03:18:47.877Z,-1.80
2019-01-19T03:23:56.466Z,-2.00
2019-01-19T03:29:20.663Z,-2.20
2019-01-19T03:34:52.829Z,-2.20
2019-01-19T03:40:15.766Z,-2.10
2019-01-19T03:45:47.571Z,-2.00
2019-01-19T03:50:56.120Z,-2.10
2019-01-19T03:56:25.264Z,-2.20
2019-01-19T04:01:30.959Z,-2.10
2019-01-19T04:06:31.231Z,-2.10
2019-01-19T04:11:33.709Z,-2.00
2019-01-19T04:16:36.851Z,-2.10
2019-01-19T04:21:43.107Z,-2.10
2019-01-19T04:26:36.883Z,-2.00
2019-01-19T04:31:36.004Z,-1.90
2019-01-19T04:36:30.437Z,-1.90
2019-01-19T04:41:24.705Z,-2.00
2019-01-19T04:46:19.217Z,-2.00
2019-01-19T04:51:13.451Z,-2.00
2019-01-19T04:56:07.513Z,-2.20
2019-01-19T05:01:01.947Z,-2.30
2019-01-19T05:05:56.517Z,-2.30
2019-01-19T05:10:53.975Z,-2.30
2019-01-19T05:15:47.832Z,-2.50
2019-01-19T05:20:42.708Z,-2.50
2019-01-19T05:25:38.112Z,-2.50
2019-01-19T05:30:32.320Z,-2.50
2019-01-19T05:35:26.110Z,-2.50
2019-01-19T05:40:20.706Z,-2.70
2019-01-19T05:45:15.821Z,-2.70
2019-01-19T05:50:13.356Z,-2.70
2019-01-19T05:55:14.369Z,-2.70
2019-01-19T06:00:15.682Z,-2.80
2019-01-19T06:05:13.505Z,-2.70
2019-01-19T06:10:14.528Z,-2.70
2019-01-19T06:15:11.939Z,-2.90
2019-01-19T06:20:19.996Z,-3.00
2019-01-19T06:25:15.629Z,-2.90
2019-01-19T06:30:18.006Z,-2.90
2019-01-19T06:35:12.371Z,-2.90
2019-01-19T06:40:13.585Z,-3.00
2019-01-19T06:45:10.314Z,-3.10
2019-01-19T06:50:09.605Z,-3.10
2019-01-19T06:55:14.073Z,-3.10
2019-01-19T07:00:18.090Z,-3.10
2019-01-19T07:10:29.505Z,-2.90
2019-01-19T07:15:25.605Z,-2.80
2019-01-19T07:20:30.942Z,-2.60
2019-01-19T07:25:29.683Z,-2.30
2019-01-19T07:30:30.260Z,-1.80
2019-01-19T07:35:27.850Z,-1.20
2019-01-19T07:40:24.991Z,-0.90
2019-01-19T07:45:21.959Z,-0.80
2019-01-19T07:50:20.658Z,1.20
2019-01-19T07:55:22.959Z,3.40
2019-01-19T08:00:23.710Z,3.90
2019-01-19T08:05:24.041Z,4.60
2019-01-19T08:10:29.016Z,4.90
2019-01-19T08:15:29.369Z,5.70
2019-01-19T08:20:30.069Z,6.90
2019-01-19T08:25:31.762Z,6.50
2019-01-19T08:30:30.458Z,6.70
2019-01-19T08:35:28.761Z,7.20
2019-01-19T08:40:45.230Z,6.40
2019-01-19T08:45:41.670Z,6.10
2019-01-19T08:50:43.883Z,7.10
2019-01-19T08:55:44.654Z,9.00
2019-01-19T09:00:45.328Z,10.40
2019-01-19T09:05:43.958Z,11.40
2019-01-19T09:10:41.337Z,9.50
2019-01-19T09:15:38.044Z,7.90
2019-01-19T09:20:31.900Z,7.80
2019-01-19T09:25:34.463Z,7.60
2019-01-19T09:30:39.638Z,8.20
2019-01-19T09:35:40.374Z,8.80
2019-01-19T09:40:38.611Z,10.10
2019-01-19T09:45:33.747Z,10.10
2019-01-19T09:50:28.220Z,11.00
2019-01-19T09:55:33.852Z,10.90
2019-01-19T10:00:36.501Z,11.90
2019-01-19T10:05:41.047Z,13.30
2019-01-19T10:10:40.281Z,14.40
2019-01-19T10:15:35.266Z,15.60
2019-01-19T10:20:32.807Z,16.60
2019-01-19T10:25:36.739Z,17.90
2019-01-19T10:30:35.367Z,18.40
2019-01-19T10:35:40.680Z,19.10
2019-01-19T10:40:39.840Z,19.30
2019-01-19T10:45:36.620Z,19.60
2019-01-19T10:50:36.419Z,20.70
2019-01-19T10:55:33.692Z,21.60
2019-01-19T11:00:34.570Z,21.40
2019-01-19T11:05:35.339Z,19.10
2019-01-19T11:10:39.554Z,20.30
2019-01-19T11:15:40.804Z,19.90
2019-01-19T11:20:47.574Z,19.80
2019-01-19T11:25:47.516Z,20.50
2019-01-19T11:30:50.420Z,19.30
2019-01-19T11:35:46.803Z,18.30
2019-01-19T11:40:43.936Z,17.20
2019-01-19T11:45:41.100Z,18.60
2019-01-19T11:50:38.693Z,19.20
2019-01-19T11:55:36.518Z,18.50
2019-01-19T12:00:41.269Z,16.90
2019-01-19T12:05:40.725Z,13.50
2019-01-19T12:10:42.045Z,11.30
2019-01-19T12:15:43.253Z,9.50
2019-01-19T12:20:44.305Z,8.00
2019-01-19T12:25:45.263Z,6.90
2019-01-19T12:30:41.372Z,6.50
2019-01-19T12:35:40.721Z,5.60
2019-01-19T12:40:36.556Z,5.30
2019-01-19T12:45:45.902Z,5.10
2019-01-19T12:50:42.506Z,5.00
2019-01-19T12:55:50.584Z,4.70
2019-01-19T13:00:34.866Z,4.60
2019-01-19T13:05:34.986Z,4.70
2019-01-19T13:10:43.620Z,4.70
2019-01-19T13:15:52.463Z,4.60
2019-01-19T13:21:10.020Z,4.60
2019-01-19T13:26:20.559Z,4.60
2019-01-19T13:31:31.059Z,4.40
2019-01-19T13:36:46.358Z,4.20
2019-01-19T13:42:12.755Z,4.20
2019-01-19T13:47:48.275Z,4.30
2019-01-19T13:53:13.549Z,4.40
2019-01-19T13:58:12.713Z,4.40
2019-01-19T14:03:26.568Z,4.30
2019-01-19T14:08:49.525Z,4.30
2019-01-19T14:14:14.974Z,4.20
2019-01-19T14:19:23.250Z,4.10
2019-01-19T14:24:34.939Z,4.10
2019-01-19T14:30:16.519Z,4.10
2019-01-19T14:35:16.656Z,4.00
2019-01-19T14:40:15.978Z,4.00
2019-01-19T14:45:18.660Z,4.00
2019-01-19T14:50:33.956Z,3.90
2019-01-19T14:55:53.860Z,3.70
2019-01-19T15:01:01.001Z,3.50
2019-01-19T15:06:22.618Z,3.50
2019-01-19T15:11:28.127Z,3.30
2019-01-19T15:16:49.004Z,3.20
2019-01-19T15:21:56.796Z,3.10
2019-01-19T15:26:58.745Z,2.80
2019-01-19T15:32:16.279Z,2.70
2019-01-19T15:37:28.473Z,2.60
2019-01-19T15:42:43.123Z,2.40
2019-01-19T15:48:05.163Z,2.30
2019-01-19T15:53:29.716Z,2.10
2019-01-19T15:58:41.999Z,1.90
2019-01-19T16:03:50.750Z,1.70
2019-01-19T16:09:18.206Z,1.60
2019-01-19T16:14:34.933Z,1.50
2019-01-19T16:20:06.754Z,1.40
2019-01-19T16:25:28.356Z,1.30
2019-01-19T16:31:04.569Z,1.20
2019-01-19T16:35:49.730Z,1.10
2019-01-19T16:41:14.746Z,1.00
2019-01-19T16:46:30.828Z,0.90
2019-01-19T16:51:39.676Z,0.80
2019-01-19T16:56:59.035Z,0.80
2019-01-19T17:02:32.413Z,0.70
2019-01-19T17:08:02.913Z,0.60
2019-01-19T17:13:18.246Z,0.60
2019-01-19T17:18:17.611Z,0.50
2019-01-19T17:23:30.081Z,0.40
2019-01-19T17:28:55.967Z,0.20
2019-01-19T17:34:01.965Z,0.00
2019-01-19T17:39:16.932Z,-0.10
2019-01-19T17:44:36.670Z,-0.10
2019-01-19T17:50:04.529Z,-0.20
2019-01-19T17:55:24.131Z,-0.20
2019-01-19T18:00:37.802Z,-0.20
2019-01-19T18:05:43.778Z,-0.30
2019-01-19T18:10:50.286Z,-0.40
2019-01-19T18:16:08.136Z,-0.40
2019-01-19T18:21:26.119Z,-0.50
2019-01-19T18:26:42.282Z,-0.50
2019-01-19T18:32:03.933Z,-0.60
2019-01-19T18:37:21.535Z,-0.70
2019-01-19T18:42:22.557Z,-0.70
2019-01-19T18:47:51.928Z,-0.80
2019-01-19T18:53:08.674Z,-0.90
2019-01-19T18:58:26.620Z,-0.90
2019-01-19T19:03:38.570Z,-1.00
2019-01-19T19:08:45.930Z,-1.10
2019-01-19T19:13:46.502Z,-1.30
2019-01-19T19:19:12.837Z,-1.40
2019-01-19T19:24:27.030Z,-1.50
2019-01-19T19:29:36.837Z,-1.50
2019-01-19T19:35:05.702Z,-1.50
2019-01-19T19:40:20.808Z,-1.40
2019-01-19T19:45:36.270Z,-1.50
2019-01-19T19:50:49.961Z,-1.70
2019-01-19T19:55:59.070Z,-1.70
2019-01-19T20:00:47.847Z,-1.70
2019-01-19T20:05:48.038Z,-1.80
2019-01-19T20:10:47.186Z,-1.90
2019-01-19T20:15:40.998Z,-1.90
2019-01-19T20:20:41.664Z,-1.80
2019-01-19T20:25:38.611Z,-1.90
2019-01-19T20:30:41.246Z,-2.00
2019-01-19T20:35:30.582Z,-2.00
2019-01-19T20:40:34.210Z,-2.10
2019-01-19T20:45:27.013Z,-2.00
2019-01-19T20:50:24.335Z,-2.20
2019-01-19T20:55:25.494Z,-2.30
2019-01-19T21:00:24.127Z,-2.20
2019-01-19T21:05:22.655Z,-2.20
2019-01-19T21:10:31.499Z,-2.20
2019-01-19T21:15:21.428Z,-2.20
2019-01-19T21:20:24.999Z,-2.20
2019-01-19T21:25:24.900Z,-2.40
2019-01-19T21:30:29.127Z,-2.50
2019-01-19T21:35:25.598Z,-2.50
2019-01-19T21:40:22.926Z,-2.70
2019-01-19T21:45:32.317Z,-2.80
2019-01-19T21:50:35.175Z,-2.90
2019-01-19T21:55:35.392Z,-2.90
2019-01-19T22:00:32.412Z,-2.90
2019-01-19T22:05:33.043Z,-3.00
2019-01-19T22:10:35.003Z,-3.00
2019-01-19T22:15:32.395Z,-3.00
2019-01-19T22:20:35.297Z,-3.00
2019-01-19T22:25:39.725Z,-3.00
2019-01-19T22:30:27.051Z,-3.00
2019-01-19T22:35:28.417Z,-3.00
2019-01-19T22:45:39.541Z,-3.10
2019-01-19T22:50:42.655Z,-3.10
2019-01-19T22:55:45.590Z,-3.10
2019-01-19T23:01:12.111Z,-3.10
2019-01-19T23:06:09.375Z,-3.20
2019-01-19T23:11:06.854Z,-3.40
2019-01-19T23:16:12.981Z,-3.40
2019-01-19T23:21:09.393Z,-3.50
2019-01-19T23:26:14.129Z,-3.50
2019-01-19T23:31:10.771Z,-3.60
2019-01-19T23:36:07.600Z,-3.40
2019-01-19T23:41:11.873Z,-3.40
2019-01-19T23:46:12.099Z,-3.50
2019-01-19T23:51:13.824Z,-3.50
2019-01-19T23:56:12.599Z,-3.50
